sensor_id;sensor_type;location;lat;lon;timestamp;pressure;altitude;pressure_sealevel;temperature;humidity
10510;BME280;5303;53.266;10.410;2023-06-24T00:01:22;102059.22;;;15.63;91.17
10510;BME280;5303;53.266;10.410;2023-06-24T00:03:48;102056.53;;;15.62;91.45
10510;BME280;5303;53.266;10.410;2023-06-24T00:06:14;102053.88;;;15.59;91.64
10510;BME280;5303;53.266;10.410;2023-06-24T00:08:44;102052.13;;;15.62;91.83
10510;BME280;5303;53.266;10.410;2023-06-24T00:11:10;102052.97;;;15.60;91.78
10510;BME280;5303;53.266;10.410;2023-06-24T00:13:35;102043.25;;;15.55;92.07
10510;BME280;5303;53.266;10.410;2023-06-24T00:16:00;102026.44;;;15.53;92.53
10510;BME280;5303;53.266;10.410;2023-06-24T00:18:26;102042.38;;;15.53;92.39
10510;BME280;5303;53.266;10.410;2023-06-24T00:20:55;102032.63;;;15.48;92.94
10510;BME280;5303;53.266;10.410;2023-06-24T00:23:22;102033.53;;;15.41;93.43
10510;BME280;5303;53.266;10.410;2023-06-24T00:25:54;102046.00;;;15.36;94.03
10510;BME280;5303;53.266;10.410;2023-06-24T00:28:23;102052.19;;;15.32;94.62
10510;BME280;5303;53.266;10.410;2023-06-24T00:30:49;102051.31;;;15.28;94.87
10510;BME280;5303;53.266;10.410;2023-06-24T00:33:15;102064.63;;;15.25;95.11
10510;BME280;5303;53.266;10.410;2023-06-24T00:35:41;102055.75;;;15.26;95.39
10510;BME280;5303;53.266;10.410;2023-06-24T00:38:08;102053.13;;;15.23;95.51
10510;BME280;5303;53.266;10.410;2023-06-24T00:40:33;102069.03;;;15.21;95.63
10510;BME280;5303;53.266;10.410;2023-06-24T00:42:58;102069.06;;;15.17;95.75
10510;BME280;5303;53.266;10.410;2023-06-24T00:45:24;102065.53;;;15.13;95.93
10510;BME280;5303;53.266;10.410;2023-06-24T00:47:50;102073.50;;;15.12;96.28
10510;BME280;5303;53.266;10.410;2023-06-24T00:50:17;102078.81;;;15.09;96.54
10510;BME280;5303;53.266;10.410;2023-06-24T00:52:43;102081.50;;;15.06;96.75
10510;BME280;5303;53.266;10.410;2023-06-24T00:55:10;102088.56;;;15.07;97.07
10510;BME280;5303;53.266;10.410;2023-06-24T00:57:39;102090.34;;;15.08;97.39
10510;BME280;5303;53.266;10.410;2023-06-24T01:00:05;102077.94;;;15.05;97.74
10510;BME280;5303;53.266;10.410;2023-06-24T01:02:35;102086.81;;;15.03;97.69
10510;BME280;5303;53.266;10.410;2023-06-24T01:05:03;102097.44;;;14.99;97.87
10510;BME280;5303;53.266;10.410;2023-06-24T01:07:30;102093.00;;;15.00;98.24
10510;BME280;5303;53.266;10.410;2023-06-24T01:09:56;102084.16;;;14.98;98.33
10510;BME280;5303;53.266;10.410;2023-06-24T01:12:22;102085.91;;;15.01;98.72
10510;BME280;5303;53.266;10.410;2023-06-24T01:14:48;102084.16;;;14.98;98.79
10510;BME280;5303;53.266;10.410;2023-06-24T01:17:34;102079.72;;;14.95;98.96
10510;BME280;5303;53.266;10.410;2023-06-24T01:33:38;102086.81;;;14.70;100.00
10510;BME280;5303;53.266;10.410;2023-06-24T01:36:08;102086.81;;;14.69;100.00
10510;BME280;5303;53.266;10.410;2023-06-24T01:38:43;102095.69;;;14.65;100.00
10510;BME280;5303;53.266;10.410;2023-06-24T01:41:13;102093.88;;;14.61;100.00
10510;BME280;5303;53.266;10.410;2023-06-24T01:43:42;102106.28;;;14.59;100.00
10510;BME280;5303;53.266;10.410;2023-06-24T01:46:09;102099.19;;;14.58;100.00
10510;BME280;5303;53.266;10.410;2023-06-24T01:48:36;102100.97;;;14.56;100.00
10510;BME280;5303;53.266;10.410;2023-06-24T01:51:08;102104.50;;;14.55;100.00
10510;BME280;5303;53.266;10.410;2023-06-24T01:53:36;102100.97;;;14.56;100.00
10510;BME280;5303;53.266;10.410;2023-06-24T01:56:05;102106.28;;;14.56;100.00
10510;BME280;5303;53.266;10.410;2023-06-24T01:58:32;102114.25;;;14.54;100.00
10510;BME280;5303;53.266;10.410;2023-06-24T02:01:01;102123.09;;;14.55;100.00
10510;BME280;5303;53.266;10.410;2023-06-24T02:03:27;102113.38;;;14.57;100.00
10510;BME280;5303;53.266;10.410;2023-06-24T02:05:53;102121.34;;;14.63;100.00
10510;BME280;5303;53.266;10.410;2023-06-24T02:08:21;102111.63;;;14.65;100.00
10510;BME280;5303;53.266;10.410;2023-06-24T02:10:48;102118.69;;;14.66;100.00
10510;BME280;5303;53.266;10.410;2023-06-24T02:13:15;102118.69;;;14.69;100.00
10510;BME280;5303;53.266;10.410;2023-06-24T02:15:42;102118.69;;;14.66;100.00
10510;BME280;5303;53.266;10.410;2023-06-24T02:18:09;102114.25;;;14.66;100.00
10510;BME280;5303;53.266;10.410;2023-06-24T02:20:37;102116.91;;;14.65;100.00
10510;BME280;5303;53.266;10.410;2023-06-24T02:23:06;102116.03;;;14.61;100.00
10510;BME280;5303;53.266;10.410;2023-06-24T02:25:31;102111.59;;;14.59;100.00
10510;BME280;5303;53.266;10.410;2023-06-24T02:27:57;102115.13;;;14.59;100.00
10510;BME280;5303;53.266;10.410;2023-06-24T02:30:23;102113.38;;;14.57;100.00
10510;BME280;5303;53.266;10.410;2023-06-24T02:32:50;102113.38;;;14.54;100.00
10510;BME280;5303;53.266;10.410;2023-06-24T02:35:15;102104.50;;;14.50;100.00
10510;BME280;5303;53.266;10.410;2023-06-24T02:37:40;102114.25;;;14.45;100.00
10510;BME280;5303;53.266;10.410;2023-06-24T02:40:07;102118.59;;;14.38;100.00
10510;BME280;5303;53.266;10.410;2023-06-24T02:42:33;102123.91;;;14.35;100.00
10510;BME280;5303;53.266;10.410;2023-06-24T02:44:59;102120.38;;;14.30;100.00
10510;BME280;5303;53.266;10.410;2023-06-24T02:47:24;102123.00;;;14.29;100.00
10510;BME280;5303;53.266;10.410;2023-06-24T02:49:52;102122.13;;;14.22;100.00
10510;BME280;5303;53.266;10.410;2023-06-24T02:52:18;102121.19;;;14.19;100.00
10510;BME280;5303;53.266;10.410;2023-06-24T02:54:44;102130.06;;;14.15;100.00
10510;BME280;5303;53.266;10.410;2023-06-24T02:57:09;102130.91;;;14.09;100.00
10510;BME280;5303;53.266;10.410;2023-06-24T02:59:36;102132.66;;;14.08;100.00
10510;BME280;5303;53.266;10.410;2023-06-24T03:02:02;102134.44;;;14.08;100.00
10510;BME280;5303;53.266;10.410;2023-06-24T03:04:29;102133.56;;;14.07;100.00
10510;BME280;5303;53.266;10.410;2023-06-24T03:06:54;102145.06;;;14.08;100.00
10510;BME280;5303;53.266;10.410;2023-06-24T03:09:21;102145.06;;;14.08;100.00
10510;BME280;5303;53.266;10.410;2023-06-24T03:11:48;102146.81;;;14.06;100.00
10510;BME280;5303;53.266;10.410;2023-06-24T03:14:13;102150.34;;;14.05;100.00
10510;BME280;5303;53.266;10.410;2023-06-24T03:16:39;102153.91;;;14.04;100.00
10510;BME280;5303;53.266;10.410;2023-06-24T03:19:05;102155.66;;;14.05;100.00
10510;BME280;5303;53.266;10.410;2023-06-24T03:21:31;102153.00;;;14.05;100.00
10510;BME280;5303;53.266;10.410;2023-06-24T03:23:56;102153.94;;;14.10;100.00
10510;BME280;5303;53.266;10.410;2023-06-24T03:26:24;102152.16;;;14.12;100.00
10510;BME280;5303;53.266;10.410;2023-06-24T03:28:50;102148.63;;;14.13;100.00
10510;BME280;5303;53.266;10.410;2023-06-24T03:31:15;102148.63;;;14.16;100.00
10510;BME280;5303;53.266;10.410;2023-06-24T03:33:41;102150.41;;;14.14;100.00
10510;BME280;5303;53.266;10.410;2023-06-24T03:36:09;102150.41;;;14.17;100.00
10510;BME280;5303;53.266;10.410;2023-06-24T03:38:35;102145.09;;;14.17;100.00
10510;BME280;5303;53.266;10.410;2023-06-24T03:41:00;102151.28;;;14.16;100.00
10510;BME280;5303;53.266;10.410;2023-06-24T03:43:25;102147.78;;;14.22;100.00
10510;BME280;5303;53.266;10.410;2023-06-24T03:45:53;102160.16;;;14.26;100.00
10510;BME280;5303;53.266;10.410;2023-06-24T03:48:20;102162.84;;;14.30;100.00
10510;BME280;5303;53.266;10.410;2023-06-24T03:50:45;102169.94;;;14.37;100.00
10510;BME280;5303;53.266;10.410;2023-06-24T03:53:10;102152.28;;;14.46;100.00
10510;BME280;5303;53.266;10.410;2023-06-24T03:55:36;102158.50;;;14.55;100.00
10510;BME280;5303;53.266;10.410;2023-06-24T03:58:01;102151.44;;;14.63;100.00
10510;BME280;5303;53.266;10.410;2023-06-24T04:00:26;102149.69;;;14.73;100.00
10510;BME280;5303;53.266;10.410;2023-06-24T04:02:51;102147.03;;;14.85;100.00
10510;BME280;5303;53.266;10.410;2023-06-24T04:05:19;102147.03;;;14.97;100.00
10510;BME280;5303;53.266;10.410;2023-06-24T04:07:44;102149.69;;;15.08;100.00
10510;BME280;5303;53.266;10.410;2023-06-24T04:10:12;102149.69;;;15.20;100.00
10510;BME280;5303;53.266;10.410;2023-06-24T04:12:37;102155.00;;;15.37;100.00
10510;BME280;5303;53.266;10.410;2023-06-24T04:15:04;102164.69;;;15.60;100.00
10510;BME280;5303;53.266;10.410;2023-06-24T04:17:30;102159.41;;;15.75;100.00
10510;BME280;5303;53.266;10.410;2023-06-24T04:19:55;102161.09;;;15.94;100.00
10510;BME280;5303;53.266;10.410;2023-06-24T04:22:21;102161.00;;;16.12;100.00
10510;BME280;5303;53.266;10.410;2023-06-24T04:24:46;102153.84;;;16.27;100.00
10510;BME280;5303;53.266;10.410;2023-06-24T04:27:11;102149.31;;;16.47;100.00
10510;BME280;5303;53.266;10.410;2023-06-24T04:29:36;102154.53;;;16.68;100.00
10510;BME280;5303;53.266;10.410;2023-06-24T04:32:02;102152.56;;;16.93;97.39
10510;BME280;5303;53.266;10.410;2023-06-24T04:34:27;102150.53;;;17.21;94.68
10510;BME280;5303;53.266;10.410;2023-06-24T04:36:53;102141.28;;;17.59;91.75
10510;BME280;5303;53.266;10.410;2023-06-24T04:39:18;102149.78;;;17.95;88.40
10510;BME280;5303;53.266;10.410;2023-06-24T04:41:43;102157.22;;;18.37;85.25
10510;BME280;5303;53.266;10.410;2023-06-24T04:44:08;102160.31;;;18.73;81.90
10510;BME280;5303;53.266;10.410;2023-06-24T04:46:34;102157.84;;;19.15;79.68
10510;BME280;5303;53.266;10.410;2023-06-24T04:49:00;102160.91;;;19.44;77.62
10510;BME280;5303;53.266;10.410;2023-06-24T04:51:25;102159.25;;;19.37;75.70
10510;BME280;5303;53.266;10.410;2023-06-24T04:53:50;102157.75;;;19.21;76.57
10510;BME280;5303;53.266;10.410;2023-06-24T04:56:16;102156.69;;;19.31;77.20
10510;BME280;5303;53.266;10.410;2023-06-24T04:58:41;102161.81;;;19.43;77.04
10510;BME280;5303;53.266;10.410;2023-06-24T05:01:06;102168.63;;;19.63;77.65
10510;BME280;5303;53.266;10.410;2023-06-24T05:03:32;102169.81;;;19.93;76.13
10510;BME280;5303;53.266;10.410;2023-06-24T05:05:57;102176.47;;;20.58;72.48
10510;BME280;5303;53.266;10.410;2023-06-24T05:08:22;102174.47;;;21.41;68.40
10510;BME280;5303;53.266;10.410;2023-06-24T05:10:47;102169.28;;;22.29;62.30
10510;BME280;5303;53.266;10.410;2023-06-24T05:13:13;102173.03;;;22.81;59.92
10510;BME280;5303;53.266;10.410;2023-06-24T05:15:38;102170.91;;;23.19;58.64
10510;BME280;5303;53.266;10.410;2023-06-24T05:18:03;102171.50;;;23.53;57.47
10510;BME280;5303;53.266;10.410;2023-06-24T05:20:29;102175.25;;;24.23;55.11
10510;BME280;5303;53.266;10.410;2023-06-24T05:22:54;102179.19;;;24.83;53.31
10510;BME280;5303;53.266;10.410;2023-06-24T05:25:19;102180.50;;;25.59;49.10
10510;BME280;5303;53.266;10.410;2023-06-24T05:27:45;102171.72;;;26.13;47.78
10510;BME280;5303;53.266;10.410;2023-06-24T05:30:10;102175.41;;;25.31;47.94
10510;BME280;5303;53.266;10.410;2023-06-24T05:32:36;102166.16;;;25.97;46.90
10510;BME280;5303;53.266;10.410;2023-06-24T05:35:01;102165.81;;;25.64;46.58
10510;BME280;5303;53.266;10.410;2023-06-24T05:37:26;102171.97;;;26.08;45.25
10510;BME280;5303;53.266;10.410;2023-06-24T05:39:52;102163.69;;;25.72;44.52
10510;BME280;5303;53.266;10.410;2023-06-24T05:42:18;102172.16;;;25.43;45.43
10510;BME280;5303;53.266;10.410;2023-06-24T05:44:43;102171.75;;;24.44;47.70
10510;BME280;5303;53.266;10.410;2023-06-24T05:47:08;102162.00;;;23.17;52.92
10510;BME280;5303;53.266;10.410;2023-06-24T05:49:33;102168.53;;;22.54;55.08
10510;BME280;5303;53.266;10.410;2023-06-24T05:51:59;102162.47;;;21.87;56.29
10510;BME280;5303;53.266;10.410;2023-06-24T05:54:24;102170.28;;;20.92;59.63
10510;BME280;5303;53.266;10.410;2023-06-24T05:56:49;102172.59;;;20.30;62.36
10510;BME280;5303;53.266;10.410;2023-06-24T05:59:15;102159.63;;;19.67;63.81
10510;BME280;5303;53.266;10.410;2023-06-24T06:01:40;102164.81;;;19.25;66.28
10510;BME280;5303;53.266;10.410;2023-06-24T06:04:05;102161.53;;;19.08;68.73
10510;BME280;5303;53.266;10.410;2023-06-24T06:06:31;102162.59;;;18.97;68.09
10510;BME280;5303;53.266;10.410;2023-06-24T06:08:56;102162.03;;;18.77;68.85
10510;BME280;5303;53.266;10.410;2023-06-24T06:11:22;102166.66;;;18.66;70.07
10510;BME280;5303;53.266;10.410;2023-06-24T06:13:47;102164.13;;;18.54;70.34
10510;BME280;5303;53.266;10.410;2023-06-24T06:16:13;102160.63;;;18.49;71.24
10510;BME280;5303;53.266;10.410;2023-06-24T06:18:38;102159.69;;;18.53;72.39
10510;BME280;5303;53.266;10.410;2023-06-24T06:21:04;102165.97;;;18.49;71.56
10510;BME280;5303;53.266;10.410;2023-06-24T06:23:29;102160.94;;;18.27;71.83
10510;BME280;5303;53.266;10.410;2023-06-24T06:25:55;102169.09;;;18.17;72.84
10510;BME280;5303;53.266;10.410;2023-06-24T06:28:20;102179.66;;;18.26;73.24
10510;BME280;5303;53.266;10.410;2023-06-24T06:30:45;102179.66;;;18.26;72.69
10510;BME280;5303;53.266;10.410;2023-06-24T06:33:11;102189.56;;;18.19;73.31
10510;BME280;5303;53.266;10.410;2023-06-24T06:35:36;102191.25;;;18.25;73.61
10510;BME280;5303;53.266;10.410;2023-06-24T06:38:01;102196.56;;;18.26;73.65
10510;BME280;5303;53.266;10.410;2023-06-24T06:40:27;102203.72;;;18.24;74.42
10510;BME280;5303;53.266;10.410;2023-06-24T06:42:53;102201.91;;;18.29;73.65
10510;BME280;5303;53.266;10.410;2023-06-24T06:45:18;102207.25;;;18.29;73.58
10510;BME280;5303;53.266;10.410;2023-06-24T06:47:44;102201.06;;;18.24;73.57
10510;BME280;5303;53.266;10.410;2023-06-24T06:50:09;102200.09;;;18.28;75.10
10510;BME280;5303;53.266;10.410;2023-06-24T06:52:35;102199.97;;;18.37;74.30
10510;BME280;5303;53.266;10.410;2023-06-24T06:55:00;102204.50;;;18.34;74.58
10510;BME280;5303;53.266;10.410;2023-06-24T06:57:25;102208.78;;;18.46;73.72
10510;BME280;5303;53.266;10.410;2023-06-24T06:59:51;102196.28;;;18.48;72.01
10510;BME280;5303;53.266;10.410;2023-06-24T07:02:17;102189.28;;;18.40;72.34
10510;BME280;5303;53.266;10.410;2023-06-24T07:04:43;102198.94;;;18.49;73.55
10510;BME280;5303;53.266;10.410;2023-06-24T07:07:08;102197.16;;;18.50;72.11
10510;BME280;5303;53.266;10.410;2023-06-24T07:09:34;102202.50;;;18.50;70.23
10510;BME280;5303;53.266;10.410;2023-06-24T07:11:59;102213.09;;;18.56;69.83
10510;BME280;5303;53.266;10.410;2023-06-24T07:14:25;102212.31;;;18.48;70.70
10510;BME280;5303;53.266;10.410;2023-06-24T07:16:50;102212.31;;;18.48;71.11
10510;BME280;5303;53.266;10.410;2023-06-24T07:19:16;102207.03;;;18.45;71.31
10510;BME280;5303;53.266;10.410;2023-06-24T07:21:41;102205.31;;;18.37;70.84
10510;BME280;5303;53.266;10.410;2023-06-24T07:24:06;102205.31;;;18.39;70.58
10510;BME280;5303;53.266;10.410;2023-06-24T07:26:32;102203.56;;;18.36;69.68
10510;BME280;5303;53.266;10.410;2023-06-24T07:28:57;102213.16;;;18.53;69.21
10510;BME280;5303;53.266;10.410;2023-06-24T07:31:25;102219.34;;;18.55;68.53
10510;BME280;5303;53.266;10.410;2023-06-24T07:33:51;102217.47;;;18.63;69.42
10510;BME280;5303;53.266;10.410;2023-06-24T07:36:16;102211.25;;;18.62;69.25
10510;BME280;5303;53.266;10.410;2023-06-24T07:38:42;102205.00;;;18.62;69.20
10510;BME280;5303;53.266;10.410;2023-06-24T07:41:08;102211.25;;;18.62;69.32
10510;BME280;5303;53.266;10.410;2023-06-24T07:43:33;102208.59;;;18.61;67.61
10510;BME280;5303;53.266;10.410;2023-06-24T07:45:58;102206.78;;;18.63;67.38
10510;BME280;5303;53.266;10.410;2023-06-24T07:48:24;102208.38;;;18.76;67.42
10510;BME280;5303;53.266;10.410;2023-06-24T07:50:49;102212.03;;;18.72;67.65
10510;BME280;5303;53.266;10.410;2023-06-24T07:53:14;102215.50;;;18.77;67.17
10510;BME280;5303;53.266;10.410;2023-06-24T07:55:40;102212.72;;;18.85;66.16
10510;BME280;5303;53.266;10.410;2023-06-24T07:58:06;102211.97;;;18.75;66.70
10510;BME280;5303;53.266;10.410;2023-06-24T08:00:31;102216.44;;;18.75;68.49
10510;BME280;5303;53.266;10.410;2023-06-24T08:02:59;102216.34;;;18.79;66.98
10510;BME280;5303;53.266;10.410;2023-06-24T08:05:25;102216.09;;;18.97;66.29
10510;BME280;5303;53.266;10.410;2023-06-24T08:07:51;102218.63;;;19.07;64.43
10510;BME280;5303;53.266;10.410;2023-06-24T08:10:16;102224.06;;;19.02;63.84
10510;BME280;5303;53.266;10.410;2023-06-24T08:12:41;102215.00;;;19.11;65.03
10510;BME280;5303;53.266;10.410;2023-06-24T08:15:07;102214.88;;;19.17;68.86
10510;BME280;5303;53.266;10.410;2023-06-24T08:17:32;102210.38;;;19.19;70.32
10510;BME280;5303;53.266;10.410;2023-06-24T08:19:58;102207.25;;;19.46;69.56
10510;BME280;5303;53.266;10.410;2023-06-24T08:22:23;102209.91;;;19.48;68.60
10510;BME280;5303;53.266;10.410;2023-06-24T08:24:48;102201.00;;;19.46;67.76
10510;BME280;5303;53.266;10.410;2023-06-24T08:27:14;102208.78;;;19.61;68.22
10510;BME280;5303;53.266;10.410;2023-06-24T08:29:39;102220.13;;;19.77;65.00
10510;BME280;5303;53.266;10.410;2023-06-24T08:32:04;102215.81;;;19.68;64.08
10510;BME280;5303;53.266;10.410;2023-06-24T08:34:32;102208.72;;;19.66;64.63
10510;BME280;5303;53.266;10.410;2023-06-24T08:36:57;102209.25;;;19.84;64.00
10510;BME280;5303;53.266;10.410;2023-06-24T08:39:22;102210.88;;;19.92;65.42
10510;BME280;5303;53.266;10.410;2023-06-24T08:41:48;102203.59;;;20.00;65.68
10510;BME280;5303;53.266;10.410;2023-06-24T08:44:13;102205.31;;;20.02;65.22
10510;BME280;5303;53.266;10.410;2023-06-24T08:46:40;102203.38;;;20.10;65.30
10510;BME280;5303;53.266;10.410;2023-06-24T08:49:25;102199.13;;;20.00;64.78
10510;BME280;5303;53.266;10.410;2023-06-24T08:51:59;102200.94;;;19.98;65.71
10510;BME280;5303;53.266;10.410;2023-06-24T08:54:25;102198.09;;;20.07;64.78
10510;BME280;5303;53.266;10.410;2023-06-24T08:56:51;102196.34;;;20.05;62.81
10510;BME280;5303;53.266;10.410;2023-06-24T08:59:16;102201.00;;;19.95;61.71
10510;BME280;5303;53.266;10.410;2023-06-24T09:01:48;102198.16;;;20.04;61.46
10510;BME280;5303;53.266;10.410;2023-06-24T09:04:14;102192.13;;;19.93;60.10
10510;BME280;5303;53.266;10.410;2023-06-24T09:06:39;102194.00;;;19.88;60.91
10510;BME280;5303;53.266;10.410;2023-06-24T09:09:19;102200.38;;;19.82;61.73
10510;BME280;5303;53.266;10.410;2023-06-24T09:11:53;102197.50;;;19.93;61.06
10510;BME280;5303;53.266;10.410;2023-06-24T09:14:19;102193.78;;;19.99;59.00
10510;BME280;5303;53.266;10.410;2023-06-24T09:16:55;102192.78;;;20.04;57.58
10510;BME280;5303;53.266;10.410;2023-06-24T09:19:22;102188.41;;;20.00;58.97
10510;BME280;5303;53.266;10.410;2023-06-24T09:21:47;102191.91;;;20.02;60.81
10510;BME280;5303;53.266;10.410;2023-06-24T09:24:13;102190.34;;;20.35;59.09
10510;BME280;5303;53.266;10.410;2023-06-24T09:26:38;102189.22;;;20.47;57.97
10510;BME280;5303;53.266;10.410;2023-06-24T09:29:03;102188.63;;;20.31;57.92
10510;BME280;5303;53.266;10.410;2023-06-24T09:31:29;102184.34;;;20.23;57.48
10510;BME280;5303;53.266;10.410;2023-06-24T09:33:57;102180.06;;;20.16;58.38
10510;BME280;5303;53.266;10.410;2023-06-24T09:36:23;102183.28;;;20.31;58.31
10510;BME280;5303;53.266;10.410;2023-06-24T09:38:49;102182.53;;;20.25;57.06
10510;BME280;5303;53.266;10.410;2023-06-24T09:41:15;102180.16;;;20.54;56.35
10510;BME280;5303;53.266;10.410;2023-06-24T09:43:42;102188.91;;;20.61;56.53
10510;BME280;5303;53.266;10.410;2023-06-24T09:46:09;102192.88;;;20.43;57.22
10510;BME280;5303;53.266;10.410;2023-06-24T09:48:34;102192.03;;;20.39;57.47
10510;BME280;5303;53.266;10.410;2023-06-24T09:51:02;102196.00;;;20.65;56.33
10510;BME280;5303;53.266;10.410;2023-06-24T09:53:34;102193.06;;;20.76;55.86
10510;BME280;5303;53.266;10.410;2023-06-24T09:56:03;102193.72;;;20.84;54.66
10510;BME280;5303;53.266;10.410;2023-06-24T09:58:31;102197.19;;;20.89;55.43
10510;BME280;5303;53.266;10.410;2023-06-24T10:01:01;102183.25;;;21.10;55.55
10510;BME280;5303;53.266;10.410;2023-06-24T10:03:27;102189.69;;;21.03;54.77
10510;BME280;5303;53.266;10.410;2023-06-24T10:05:53;102184.53;;;20.94;55.23
10510;BME280;5303;53.266;10.410;2023-06-24T10:08:19;102186.25;;;20.98;55.89
10510;BME280;5303;53.266;10.410;2023-06-24T10:10:45;102171.41;;;21.19;56.04
10510;BME280;5303;53.266;10.410;2023-06-24T10:13:11;102174.28;;;21.11;56.82
10510;BME280;5303;53.266;10.410;2023-06-24T10:15:36;102167.16;;;21.10;57.13
10510;BME280;5303;53.266;10.410;2023-06-24T10:18:02;102160.97;;;21.08;59.01
10510;BME280;5303;53.266;10.410;2023-06-24T10:20:28;102159.34;;;21.01;57.98
10510;BME280;5303;53.266;10.410;2023-06-24T10:22:54;102160.53;;;21.23;58.39
10510;BME280;5303;53.266;10.410;2023-06-24T10:25:19;102161.13;;;21.38;55.89
10510;BME280;5303;53.266;10.410;2023-06-24T10:27:53;102155.66;;;21.41;56.57
10510;BME280;5303;53.266;10.410;2023-06-24T10:30:19;102149.16;;;21.49;58.57
10510;BME280;5303;53.266;10.410;2023-06-24T10:32:45;102143.75;;;21.51;60.06
10510;BME280;5303;53.266;10.410;2023-06-24T10:35:23;102145.25;;;21.61;60.20
10510;BME280;5303;53.266;10.410;2023-06-24T10:38:00;102134.97;;;21.77;59.96
10510;BME280;5303;53.266;10.410;2023-06-24T10:43:28;102141.66;;;21.93;59.10
10510;BME280;5303;53.266;10.410;2023-06-24T10:45:58;102135.34;;;21.94;59.59
10510;BME280;5303;53.266;10.410;2023-06-24T10:48:24;102138.63;;;22.07;59.14
10510;BME280;5303;53.266;10.410;2023-06-24T10:50:49;102125.91;;;22.12;56.69
10510;BME280;5303;53.266;10.410;2023-06-24T10:53:15;102130.03;;;22.24;56.40
10510;BME280;5303;53.266;10.410;2023-06-24T10:55:43;102127.31;;;22.53;54.67
10510;BME280;5303;53.266;10.410;2023-06-24T10:58:10;102119.41;;;22.49;54.61
10510;BME280;5303;53.266;10.410;2023-06-24T11:00:36;102117.81;;;22.41;54.63
10510;BME280;5303;53.266;10.410;2023-06-24T11:03:12;102114.53;;;22.32;55.33
10510;BME280;5303;53.266;10.410;2023-06-24T11:05:41;102108.38;;;22.28;56.32
10510;BME280;5303;53.266;10.410;2023-06-24T11:08:07;102108.28;;;22.31;55.95
10510;BME280;5303;53.266;10.410;2023-06-24T11:10:33;102106.06;;;22.44;55.31
10510;BME280;5303;53.266;10.410;2023-06-24T11:13:05;102110.13;;;22.57;54.84
10510;BME280;5303;53.266;10.410;2023-06-24T11:15:32;102109.59;;;22.74;55.01
10510;BME280;5303;53.266;10.410;2023-06-24T11:17:57;102109.00;;;22.92;53.50
10510;BME280;5303;53.266;10.410;2023-06-24T11:20:22;102106.00;;;23.02;53.51
10510;BME280;5303;53.266;10.410;2023-06-24T11:22:48;102100.50;;;23.05;53.40
10510;BME280;5303;53.266;10.410;2023-06-24T11:25:18;102109.84;;;22.94;55.07
10510;BME280;5303;53.266;10.410;2023-06-24T11:27:43;102103.50;;;22.95;55.05
10510;BME280;5303;53.266;10.410;2023-06-24T11:30:10;102100.50;;;23.05;52.69
10510;BME280;5303;53.266;10.410;2023-06-24T11:32:43;102101.22;;;22.83;53.21
10510;BME280;5303;53.266;10.410;2023-06-24T11:35:11;102099.56;;;23.06;52.82
10510;BME280;5303;53.266;10.410;2023-06-24T11:37:37;102090.13;;;23.19;51.06
10510;BME280;5303;53.266;10.410;2023-06-24T11:40:06;102105.47;;;23.17;51.36
10510;BME280;5303;53.266;10.410;2023-06-24T11:42:35;102096.38;;;22.94;53.35
10510;BME280;5303;53.266;10.410;2023-06-24T11:45:05;102092.88;;;22.92;51.96
10510;BME280;5303;53.266;10.410;2023-06-24T11:47:32;102089.44;;;22.87;53.16
10510;BME280;5303;53.266;10.410;2023-06-24T11:49:59;102084.63;;;22.97;53.66
10510;BME280;5303;53.266;10.410;2023-06-24T11:55:00;102084.53;;;23.25;52.36
10510;BME280;5303;53.266;10.410;2023-06-24T12:00:31;102077.72;;;23.40;54.48
10510;BME280;5303;53.266;10.410;2023-06-24T12:03:00;102081.00;;;23.48;53.22
10510;BME280;5303;53.266;10.410;2023-06-24T12:05:31;102087.44;;;23.44;52.16
10510;BME280;5303;53.266;10.410;2023-06-24T12:08:01;102085.84;;;23.38;51.98
10510;BME280;5303;53.266;10.410;2023-06-24T12:10:27;102086.06;;;23.57;51.42
10510;BME280;5303;53.266;10.410;2023-06-24T12:12:54;102072.78;;;23.52;53.58
10510;BME280;5303;53.266;10.410;2023-06-24T12:15:19;102077.72;;;23.65;51.49
10510;BME280;5303;53.266;10.410;2023-06-24T12:17:45;102068.03;;;23.59;51.39
10510;BME280;5303;53.266;10.410;2023-06-24T12:20:10;102068.59;;;23.69;50.72
10510;BME280;5303;53.266;10.410;2023-06-24T12:22:36;102068.16;;;23.79;50.45
10510;BME280;5303;53.266;10.410;2023-06-24T12:25:02;102067.34;;;24.01;50.44
10510;BME280;5303;53.266;10.410;2023-06-24T12:27:27;102075.50;;;24.23;48.73
10510;BME280;5303;53.266;10.410;2023-06-24T12:29:53;102069.66;;;24.11;48.49
10510;BME280;5303;53.266;10.410;2023-06-24T12:32:18;102070.88;;;24.03;48.89
10510;BME280;5303;53.266;10.410;2023-06-24T12:34:43;102066.00;;;23.89;48.24
10510;BME280;5303;53.266;10.410;2023-06-24T12:37:09;102066.53;;;23.75;49.33
10510;BME280;5303;53.266;10.410;2023-06-24T12:39:34;102066.13;;;23.63;49.60
10510;BME280;5303;53.266;10.410;2023-06-24T12:41:59;102065.03;;;23.92;49.70
10510;BME280;5303;53.266;10.410;2023-06-24T12:44:24;102062.13;;;23.96;48.67
10510;BME280;5303;53.266;10.410;2023-06-24T12:46:50;102062.44;;;24.12;49.26
10510;BME280;5303;53.266;10.410;2023-06-24T12:49:15;102061.28;;;24.18;49.97
10510;BME280;5303;53.266;10.410;2023-06-24T12:51:40;102063.56;;;24.28;48.92
10510;BME280;5303;53.266;10.410;2023-06-24T12:54:06;102068.06;;;24.28;47.50
10510;BME280;5303;53.266;10.410;2023-06-24T12:56:31;102065.75;;;24.19;47.06
10510;BME280;5303;53.266;10.410;2023-06-24T12:58:56;102074.09;;;24.12;46.76
10510;BME280;5303;53.266;10.410;2023-06-24T13:01:21;102069.56;;;24.13;47.82
10510;BME280;5303;53.266;10.410;2023-06-24T13:03:47;102059.91;;;24.07;48.33
10510;BME280;5303;53.266;10.410;2023-06-24T13:06:12;102066.00;;;24.12;48.09